sensor_id;sensor_type;location;lat;lon;timestamp;P1;durP1;ratioP1;P2;durP2;ratioP2
8187;SDS011;4135;49.184;9.722;2022-09-01T00:00:27;8.25;;;7.07;;
8187;SDS011;4135;49.184;9.722;2022-09-01T00:02:58;10.48;;;6.93;;
8187;SDS011;4135;49.184;9.722;2022-09-01T00:05:28;10.25;;;7.72;;
8187;SDS011;4135;49.184;9.722;2022-09-01T00:08:00;12.70;;;8.27;;
8187;SDS011;4135;49.184;9.722;2022-09-01T00:10:30;9.15;;;7.03;;
8187;SDS011;4135;49.184;9.722;2022-09-01T00:13:00;10.18;;;6.97;;
8187;SDS011;4135;49.184;9.722;2022-09-01T00:15:30;10.30;;;7.80;;
8187;SDS011;4135;49.184;9.722;2022-09-01T00:18:00;10.63;;;7.85;;
8187;SDS011;4135;49.184;9.722;2022-09-01T00:20:30;11.02;;;8.75;;
8187;SDS011;4135;49.184;9.722;2022-09-01T00:22:59;13.10;;;8.48;;
8187;SDS011;4135;49.184;9.722;2022-09-01T00:25:29;13.98;;;8.40;;
8187;SDS011;4135;49.184;9.722;2022-09-01T00:27:58;14.15;;;9.57;;
8187;SDS011;4135;49.184;9.722;2022-09-01T00:30:32;13.32;;;8.82;;
8187;SDS011;4135;49.184;9.722;2022-09-01T00:33:02;12.88;;;8.20;;
8187;SDS011;4135;49.184;9.722;2022-09-01T00:35:31;11.57;;;8.88;;
8187;SDS011;4135;49.184;9.722;2022-09-01T00:38:01;12.00;;;9.25;;
8187;SDS011;4135;49.184;9.722;2022-09-01T00:40:30;16.40;;;10.25;;
8187;SDS011;4135;49.184;9.722;2022-09-01T00:43:09;13.75;;;8.88;;
8187;SDS011;4135;49.184;9.722;2022-09-01T00:45:40;14.27;;;9.27;;
8187;SDS011;4135;49.184;9.722;2022-09-01T00:48:10;14.35;;;9.60;;
8187;SDS011;4135;49.184;9.722;2022-09-01T00:50:39;12.73;;;9.90;;
8187;SDS011;4135;49.184;9.722;2022-09-01T00:53:10;17.17;;;10.95;;
8187;SDS011;4135;49.184;9.722;2022-09-01T00:55:40;12.10;;;8.00;;
8187;SDS011;4135;49.184;9.722;2022-09-01T00:58:10;12.40;;;9.55;;
8187;SDS011;4135;49.184;9.722;2022-09-01T01:00:39;11.73;;;8.77;;
8187;SDS011;4135;49.184;9.722;2022-09-01T01:03:09;11.48;;;7.95;;
8187;SDS011;4135;49.184;9.722;2022-09-01T01:05:41;13.15;;;9.57;;
8187;SDS011;4135;49.184;9.722;2022-09-01T01:08:23;12.75;;;9.18;;
8187;SDS011;4135;49.184;9.722;2022-09-01T01:11:03;12.45;;;9.43;;
8187;SDS011;4135;49.184;9.722;2022-09-01T01:13:57;11.18;;;9.20;;
8187;SDS011;4135;49.184;9.722;2022-09-01T01:16:33;17.15;;;10.70;;
8187;SDS011;4135;49.184;9.722;2022-09-01T01:19:03;12.60;;;8.95;;
8187;SDS011;4135;49.184;9.722;2022-09-01T01:21:35;13.80;;;10.25;;
8187;SDS011;4135;49.184;9.722;2022-09-01T01:24:32;16.58;;;10.07;;
8187;SDS011;4135;49.184;9.722;2022-09-01T01:27:02;13.90;;;9.65;;
8187;SDS011;4135;49.184;9.722;2022-09-01T01:29:33;15.65;;;11.18;;
8187;SDS011;4135;49.184;9.722;2022-09-01T01:32:05;17.75;;;10.88;;
8187;SDS011;4135;49.184;9.722;2022-09-01T01:34:40;14.82;;;10.90;;
8187;SDS011;4135;49.184;9.722;2022-09-01T01:37:13;14.75;;;11.20;;
8187;SDS011;4135;49.184;9.722;2022-09-01T01:39:43;15.20;;;10.20;;
8187;SDS011;4135;49.184;9.722;2022-09-01T01:42:12;16.17;;;10.85;;
8187;SDS011;4135;49.184;9.722;2022-09-01T01:44:42;17.90;;;11.07;;
8187;SDS011;4135;49.184;9.722;2022-09-01T01:47:12;14.88;;;10.55;;
8187;SDS011;4135;49.184;9.722;2022-09-01T01:49:41;19.70;;;11.57;;
8187;SDS011;4135;49.184;9.722;2022-09-01T01:52:11;14.75;;;9.52;;
8187;SDS011;4135;49.184;9.722;2022-09-01T01:54:45;15.93;;;10.15;;
8187;SDS011;4135;49.184;9.722;2022-09-01T01:57:15;13.73;;;10.82;;
8187;SDS011;4135;49.184;9.722;2022-09-01T01:59:45;13.57;;;10.70;;
8187;SDS011;4135;49.184;9.722;2022-09-01T02:02:15;15.90;;;10.18;;
8187;SDS011;4135;49.184;9.722;2022-09-01T02:04:44;14.85;;;9.90;;
8187;SDS011;4135;49.184;9.722;2022-09-01T02:07:14;13.60;;;9.73;;
8187;SDS011;4135;49.184;9.722;2022-09-01T02:09:43;15.27;;;9.77;;
8187;SDS011;4135;49.184;9.722;2022-09-01T02:12:16;16.05;;;10.57;;
8187;SDS011;4135;49.184;9.722;2022-09-01T02:14:49;19.13;;;10.50;;
8187;SDS011;4135;49.184;9.722;2022-09-01T02:17:18;13.60;;;9.23;;
8187;SDS011;4135;49.184;9.722;2022-09-01T02:19:49;17.23;;;11.00;;
8187;SDS011;4135;49.184;9.722;2022-09-01T02:22:18;14.07;;;10.20;;
8187;SDS011;4135;49.184;9.722;2022-09-01T02:24:49;12.80;;;10.45;;
8187;SDS011;4135;49.184;9.722;2022-09-01T02:27:21;13.70;;;9.90;;
8187;SDS011;4135;49.184;9.722;2022-09-01T02:29:52;13.13;;;10.32;;
8187;SDS011;4135;49.184;9.722;2022-09-01T02:32:23;13.20;;;9.55;;
8187;SDS011;4135;49.184;9.722;2022-09-01T02:34:52;13.50;;;10.20;;
8187;SDS011;4135;49.184;9.722;2022-09-01T02:37:24;15.90;;;10.45;;
8187;SDS011;4135;49.184;9.722;2022-09-01T02:39:54;13.75;;;9.00;;
8187;SDS011;4135;49.184;9.722;2022-09-01T02:42:27;19.17;;;10.13;;
8187;SDS011;4135;49.184;9.722;2022-09-01T02:44:58;17.70;;;9.95;;
8187;SDS011;4135;49.184;9.722;2022-09-01T02:47:27;17.35;;;10.82;;
8187;SDS011;4135;49.184;9.722;2022-09-01T02:49:57;14.40;;;10.38;;
8187;SDS011;4135;49.184;9.722;2022-09-01T02:52:30;16.63;;;11.45;;
8187;SDS011;4135;49.184;9.722;2022-09-01T02:55:06;17.00;;;10.30;;
8187;SDS011;4135;49.184;9.722;2022-09-01T02:57:37;14.40;;;10.23;;
8187;SDS011;4135;49.184;9.722;2022-09-01T03:00:07;14.70;;;10.35;;
8187;SDS011;4135;49.184;9.722;2022-09-01T03:02:49;14.57;;;9.75;;
8187;SDS011;4135;49.184;9.722;2022-09-01T03:05:21;13.82;;;10.73;;
8187;SDS011;4135;49.184;9.722;2022-09-01T03:07:59;15.38;;;10.93;;
8187;SDS011;4135;49.184;9.722;2022-09-01T03:10:32;13.65;;;10.30;;
8187;SDS011;4135;49.184;9.722;2022-09-01T03:13:05;13.93;;;9.75;;
8187;SDS011;4135;49.184;9.722;2022-09-01T03:15:46;14.73;;;10.75;;
8187;SDS011;4135;49.184;9.722;2022-09-01T03:18:16;16.73;;;10.93;;
8187;SDS011;4135;49.184;9.722;2022-09-01T03:20:48;19.25;;;10.95;;
8187;SDS011;4135;49.184;9.722;2022-09-01T03:23:20;16.58;;;10.88;;
8187;SDS011;4135;49.184;9.722;2022-09-01T03:25:53;15.98;;;11.50;;
8187;SDS011;4135;49.184;9.722;2022-09-01T03:28:23;14.48;;;11.00;;
8187;SDS011;4135;49.184;9.722;2022-09-01T03:30:53;16.42;;;11.05;;
8187;SDS011;4135;49.184;9.722;2022-09-01T03:33:25;15.85;;;10.93;;
8187;SDS011;4135;49.184;9.722;2022-09-01T03:35:56;21.35;;;11.27;;
8187;SDS011;4135;49.184;9.722;2022-09-01T03:38:25;19.67;;;11.68;;
8187;SDS011;4135;49.184;9.722;2022-09-01T03:40:58;16.25;;;11.80;;
8187;SDS011;4135;49.184;9.722;2022-09-01T03:43:32;18.13;;;12.18;;
8187;SDS011;4135;49.184;9.722;2022-09-01T03:46:02;17.35;;;11.60;;
8187;SDS011;4135;49.184;9.722;2022-09-01T03:48:32;19.60;;;11.98;;
8187;SDS011;4135;49.184;9.722;2022-09-01T03:51:01;19.00;;;12.75;;
8187;SDS011;4135;49.184;9.722;2022-09-01T03:53:32;15.93;;;12.35;;
8187;SDS011;4135;49.184;9.722;2022-09-01T03:56:05;21.77;;;13.00;;
8187;SDS011;4135;49.184;9.722;2022-09-01T03:58:36;18.83;;;12.95;;
8187;SDS011;4135;49.184;9.722;2022-09-01T04:01:07;20.20;;;14.07;;
8187;SDS011;4135;49.184;9.722;2022-09-01T04:03:37;19.00;;;13.82;;
8187;SDS011;4135;49.184;9.722;2022-09-01T04:06:08;17.80;;;13.50;;
8187;SDS011;4135;49.184;9.722;2022-09-01T04:08:38;19.98;;;13.65;;
8187;SDS011;4135;49.184;9.722;2022-09-01T04:11:15;21.42;;;14.85;;
8187;SDS011;4135;49.184;9.722;2022-09-01T04:13:46;23.92;;;14.88;;
8187;SDS011;4135;49.184;9.722;2022-09-01T04:16:20;19.33;;;14.55;;
8187;SDS011;4135;49.184;9.722;2022-09-01T04:19:15;21.90;;;14.05;;
8187;SDS011;4135;49.184;9.722;2022-09-01T04:21:49;24.30;;;14.82;;
8187;SDS011;4135;49.184;9.722;2022-09-01T04:24:22;19.67;;;13.93;;
8187;SDS011;4135;49.184;9.722;2022-09-01T04:26:53;20.08;;;14.15;;
8187;SDS011;4135;49.184;9.722;2022-09-01T04:29:26;18.25;;;13.35;;
8187;SDS011;4135;49.184;9.722;2022-09-01T04:31:58;21.63;;;15.35;;
8187;SDS011;4135;49.184;9.722;2022-09-01T04:34:32;21.35;;;15.23;;
8187;SDS011;4135;49.184;9.722;2022-09-01T04:37:07;23.23;;;15.30;;
8187;SDS011;4135;49.184;9.722;2022-09-01T04:39:38;20.23;;;15.73;;
8187;SDS011;4135;49.184;9.722;2022-09-01T04:42:15;24.42;;;16.15;;
8187;SDS011;4135;49.184;9.722;2022-09-01T04:44:46;23.73;;;15.85;;
8187;SDS011;4135;49.184;9.722;2022-09-01T04:47:16;21.00;;;15.85;;
8187;SDS011;4135;49.184;9.722;2022-09-01T04:49:47;20.73;;;15.65;;
8187;SDS011;4135;49.184;9.722;2022-09-01T04:52:17;23.75;;;16.30;;
8187;SDS011;4135;49.184;9.722;2022-09-01T04:54:46;23.55;;;14.45;;
8187;SDS011;4135;49.184;9.722;2022-09-01T04:57:17;23.00;;;16.27;;
8187;SDS011;4135;49.184;9.722;2022-09-01T04:59:46;23.00;;;15.95;;
8187;SDS011;4135;49.184;9.722;2022-09-01T05:02:16;25.50;;;16.05;;
8187;SDS011;4135;49.184;9.722;2022-09-01T05:04:45;23.65;;;15.13;;
8187;SDS011;4135;49.184;9.722;2022-09-01T05:07:15;23.20;;;15.35;;
8187;SDS011;4135;49.184;9.722;2022-09-01T05:09:45;23.42;;;14.85;;
8187;SDS011;4135;49.184;9.722;2022-09-01T05:12:15;25.58;;;16.75;;
8187;SDS011;4135;49.184;9.722;2022-09-01T05:14:45;23.20;;;15.43;;
8187;SDS011;4135;49.184;9.722;2022-09-01T05:17:16;21.00;;;15.38;;
8187;SDS011;4135;49.184;9.722;2022-09-01T05:19:47;24.00;;;14.95;;
8187;SDS011;4135;49.184;9.722;2022-09-01T05:22:18;22.00;;;15.48;;
8187;SDS011;4135;49.184;9.722;2022-09-01T05:24:49;23.33;;;15.40;;
8187;SDS011;4135;49.184;9.722;2022-09-01T05:27:19;22.75;;;16.10;;
8187;SDS011;4135;49.184;9.722;2022-09-01T05:29:50;20.15;;;14.93;;
8187;SDS011;4135;49.184;9.722;2022-09-01T05:32:22;23.55;;;16.13;;
8187;SDS011;4135;49.184;9.722;2022-09-01T05:34:53;24.92;;;16.33;;
8187;SDS011;4135;49.184;9.722;2022-09-01T05:37:24;27.52;;;16.95;;
8187;SDS011;4135;49.184;9.722;2022-09-01T05:39:56;19.48;;;15.00;;
8187;SDS011;4135;49.184;9.722;2022-09-01T05:42:26;23.98;;;16.20;;
8187;SDS011;4135;49.184;9.722;2022-09-01T05:44:57;22.85;;;15.40;;
8187;SDS011;4135;49.184;9.722;2022-09-01T05:47:26;23.55;;;14.30;;
8187;SDS011;4135;49.184;9.722;2022-09-01T05:49:56;20.98;;;13.90;;
8187;SDS011;4135;49.184;9.722;2022-09-01T05:52:31;23.02;;;12.93;;
8187;SDS011;4135;49.184;9.722;2022-09-01T05:55:02;18.88;;;13.43;;
8187;SDS011;4135;49.184;9.722;2022-09-01T05:57:32;22.00;;;13.68;;
8187;SDS011;4135;49.184;9.722;2022-09-01T06:00:04;19.27;;;14.15;;
8187;SDS011;4135;49.184;9.722;2022-09-01T06:02:40;17.35;;;12.18;;
8187;SDS011;4135;49.184;9.722;2022-09-01T06:05:10;19.33;;;12.90;;
8187;SDS011;4135;49.184;9.722;2022-09-01T06:07:43;20.33;;;12.20;;
8187;SDS011;4135;49.184;9.722;2022-09-01T06:10:13;18.83;;;12.10;;
8187;SDS011;4135;49.184;9.722;2022-09-01T06:12:43;18.27;;;12.25;;
8187;SDS011;4135;49.184;9.722;2022-09-01T06:15:13;19.95;;;13.48;;
8187;SDS011;4135;49.184;9.722;2022-09-01T06:17:46;19.40;;;12.98;;
8187;SDS011;4135;49.184;9.722;2022-09-01T06:20:16;18.10;;;12.00;;
8187;SDS011;4135;49.184;9.722;2022-09-01T06:22:47;17.40;;;12.02;;
8187;SDS011;4135;49.184;9.722;2022-09-01T06:25:17;20.90;;;13.13;;
8187;SDS011;4135;49.184;9.722;2022-09-01T06:27:47;17.00;;;12.32;;
8187;SDS011;4135;49.184;9.722;2022-09-01T06:30:17;18.00;;;12.25;;
8187;SDS011;4135;49.184;9.722;2022-09-01T06:32:52;16.42;;;11.98;;
8187;SDS011;4135;49.184;9.722;2022-09-01T06:35:22;19.65;;;13.32;;
8187;SDS011;4135;49.184;9.722;2022-09-01T06:37:57;16.70;;;12.93;;
8187;SDS011;4135;49.184;9.722;2022-09-01T06:40:29;15.60;;;11.95;;
8187;SDS011;4135;49.184;9.722;2022-09-01T06:43:00;17.50;;;11.82;;
8187;SDS011;4135;49.184;9.722;2022-09-01T06:45:39;15.15;;;11.52;;
8187;SDS011;4135;49.184;9.722;2022-09-01T06:48:10;18.40;;;12.77;;
8187;SDS011;4135;49.184;9.722;2022-09-01T06:50:44;16.48;;;11.13;;
8187;SDS011;4135;49.184;9.722;2022-09-01T06:53:14;19.48;;;12.23;;
8187;SDS011;4135;49.184;9.722;2022-09-01T06:55:47;16.20;;;11.32;;
8187;SDS011;4135;49.184;9.722;2022-09-01T06:58:17;17.88;;;12.20;;
8187;SDS011;4135;49.184;9.722;2022-09-01T07:00:46;16.92;;;10.82;;
8187;SDS011;4135;49.184;9.722;2022-09-01T07:03:17;16.17;;;10.95;;
8187;SDS011;4135;49.184;9.722;2022-09-01T07:05:47;17.38;;;12.15;;
8187;SDS011;4135;49.184;9.722;2022-09-01T07:08:20;17.98;;;12.10;;
8187;SDS011;4135;49.184;9.722;2022-09-01T07:10:51;21.15;;;10.65;;
8187;SDS011;4135;49.184;9.722;2022-09-01T07:13:21;16.02;;;10.90;;
8187;SDS011;4135;49.184;9.722;2022-09-01T07:15:53;17.08;;;10.90;;
8187;SDS011;4135;49.184;9.722;2022-09-01T07:18:24;11.98;;;9.57;;
8187;SDS011;4135;49.184;9.722;2022-09-01T07:20:54;15.20;;;9.88;;
8187;SDS011;4135;49.184;9.722;2022-09-01T07:23:23;13.75;;;9.73;;
8187;SDS011;4135;49.184;9.722;2022-09-01T07:25:53;17.42;;;10.75;;
8187;SDS011;4135;49.184;9.722;2022-09-01T07:28:23;14.13;;;9.93;;
8187;SDS011;4135;49.184;9.722;2022-09-01T07:30:55;13.20;;;8.95;;
8187;SDS011;4135;49.184;9.722;2022-09-01T07:33:26;15.05;;;9.10;;
8187;SDS011;4135;49.184;9.722;2022-09-01T07:35:58;13.48;;;9.57;;
8187;SDS011;4135;49.184;9.722;2022-09-01T07:38:27;15.07;;;10.90;;
8187;SDS011;4135;49.184;9.722;2022-09-01T07:40:58;17.17;;;10.27;;
8187;SDS011;4135;49.184;9.722;2022-09-01T07:43:28;13.57;;;9.23;;
8187;SDS011;4135;49.184;9.722;2022-09-01T07:46:02;18.63;;;10.77;;
8187;SDS011;4135;49.184;9.722;2022-09-01T07:48:33;13.50;;;9.02;;
8187;SDS011;4135;49.184;9.722;2022-09-01T07:51:03;11.10;;;8.25;;
8187;SDS011;4135;49.184;9.722;2022-09-01T07:53:34;14.90;;;8.88;;
8187;SDS011;4135;49.184;9.722;2022-09-01T07:56:06;14.80;;;10.27;;
8187;SDS011;4135;49.184;9.722;2022-09-01T07:58:38;16.85;;;10.55;;
8187;SDS011;4135;49.184;9.722;2022-09-01T08:01:14;17.88;;;10.32;;
8187;SDS011;4135;49.184;9.722;2022-09-01T08:03:47;11.95;;;9.45;;
8187;SDS011;4135;49.184;9.722;2022-09-01T08:06:20;11.18;;;9.55;;
8187;SDS011;4135;49.184;9.722;2022-09-01T08:08:54;17.13;;;11.23;;
8187;SDS011;4135;49.184;9.722;2022-09-01T08:11:27;15.05;;;11.02;;
8187;SDS011;4135;49.184;9.722;2022-09-01T08:13:58;18.90;;;11.32;;
8187;SDS011;4135;49.184;9.722;2022-09-01T08:16:28;18.38;;;12.60;;
8187;SDS011;4135;49.184;9.722;2022-09-01T08:18:59;16.40;;;12.93;;
8187;SDS011;4135;49.184;9.722;2022-09-01T08:21:29;21.23;;;13.32;;
8187;SDS011;4135;49.184;9.722;2022-09-01T08:23:58;18.15;;;13.18;;
8187;SDS011;4135;49.184;9.722;2022-09-01T08:26:28;19.77;;;13.60;;
8187;SDS011;4135;49.184;9.722;2022-09-01T08:28:57;18.27;;;13.07;;
8187;SDS011;4135;49.184;9.722;2022-09-01T08:31:27;18.23;;;12.50;;
8187;SDS011;4135;49.184;9.722;2022-09-01T08:33:56;20.10;;;12.90;;
8187;SDS011;4135;49.184;9.722;2022-09-01T08:36:27;19.50;;;11.80;;
8187;SDS011;4135;49.184;9.722;2022-09-01T08:38:57;17.60;;;12.65;;
8187;SDS011;4135;49.184;9.722;2022-09-01T08:41:40;21.75;;;13.25;;
8187;SDS011;4135;49.184;9.722;2022-09-01T08:47:11;18.30;;;12.02;;
8187;SDS011;4135;49.184;9.722;2022-09-01T08:49:44;15.57;;;11.57;;
8187;SDS011;4135;49.184;9.722;2022-09-01T08:52:35;17.42;;;11.85;;
8187;SDS011;4135;49.184;9.722;2022-09-01T08:57:46;15.52;;;10.75;;
8187;SDS011;4135;49.184;9.722;2022-09-01T09:00:20;12.63;;;9.85;;
8187;SDS011;4135;49.184;9.722;2022-09-01T09:02:55;15.40;;;9.88;;
8187;SDS011;4135;49.184;9.722;2022-09-01T09:05:34;12.95;;;9.70;;
8187;SDS011;4135;49.184;9.722;2022-09-01T09:11:03;12.93;;;9.77;;
8187;SDS011;4135;49.184;9.722;2022-09-01T09:16:34;10.15;;;8.55;;
8187;SDS011;4135;49.184;9.722;2022-09-01T09:19:10;14.02;;;9.93;;
8187;SDS011;4135;49.184;9.722;2022-09-01T09:21:49;12.13;;;8.55;;
8187;SDS011;4135;49.184;9.722;2022-09-01T09:27:16;13.30;;;9.07;;
8187;SDS011;4135;49.184;9.722;2022-09-01T09:32:41;10.95;;;9.00;;
8187;SDS011;4135;49.184;9.722;2022-09-01T09:35:21;14.43;;;9.10;;
8187;SDS011;4135;49.184;9.722;2022-09-01T09:38:21;12.65;;;9.35;;
8187;SDS011;4135;49.184;9.722;2022-09-01T09:41:04;12.25;;;8.45;;
8187;SDS011;4135;49.184;9.722;2022-09-01T09:43:37;10.32;;;7.38;;
8187;SDS011;4135;49.184;9.722;2022-09-01T09:51:38;12.93;;;7.43;;
8187;SDS011;4135;49.184;9.722;2022-09-01T09:56:47;9.00;;;7.28;;
8187;SDS011;4135;49.184;9.722;2022-09-01T09:59:31;8.85;;;6.72;;
8187;SDS011;4135;49.184;9.722;2022-09-01T10:02:30;10.80;;;7.38;;
8187;SDS011;4135;49.184;9.722;2022-09-01T10:05:00;9.10;;;7.18;;
8187;SDS011;4135;49.184;9.722;2022-09-01T10:07:51;10.30;;;7.70;;
8187;SDS011;4135;49.184;9.722;2022-09-01T10:10:41;10.88;;;7.93;;
8187;SDS011;4135;49.184;9.722;2022-09-01T10:13:16;10.43;;;7.78;;
8187;SDS011;4135;49.184;9.722;2022-09-01T10:15:49;9.77;;;7.18;;
8187;SDS011;4135;49.184;9.722;2022-09-01T10:18:22;8.45;;;6.97;;
8187;SDS011;4135;49.184;9.722;2022-09-01T10:21:29;9.73;;;7.47;;
8187;SDS011;4135;49.184;9.722;2022-09-01T10:23:53;14.40;;;6.30;;
8187;SDS011;4135;49.184;9.722;2022-09-01T10:26:24;10.80;;;6.65;;
8187;SDS011;4135;49.184;9.722;2022-09-01T10:29:12;9.77;;;5.45;;
8187;SDS011;4135;49.184;9.722;2022-09-01T10:31:44;8.43;;;6.40;;
8187;SDS011;4135;49.184;9.722;2022-09-01T10:34:14;7.22;;;5.43;;
8187;SDS011;4135;49.184;9.722;2022-09-01T10:36:46;12.25;;;7.18;;
8187;SDS011;4135;49.184;9.722;2022-09-01T10:39:17;10.30;;;6.47;;
8187;SDS011;4135;49.184;9.722;2022-09-01T10:41:48;8.23;;;5.45;;
8187;SDS011;4135;49.184;9.722;2022-09-01T10:44:26;8.77;;;5.88;;
8187;SDS011;4135;49.184;9.722;2022-09-01T10:55:13;6.53;;;4.25;;
8187;SDS011;4135;49.184;9.722;2022-09-01T11:01:03;7.78;;;4.90;;
8187;SDS011;4135;49.184;9.722;2022-09-01T11:03:52;8.40;;;5.38;;
8187;SDS011;4135;49.184;9.722;2022-09-01T11:06:31;6.28;;;5.13;;
8187;SDS011;4135;49.184;9.722;2022-09-01T11:09:02;6.28;;;4.82;;
8187;SDS011;4135;49.184;9.722;2022-09-01T11:11:50;6.45;;;4.85;;
8187;SDS011;4135;49.184;9.722;2022-09-01T11:20:24;6.82;;;5.07;;
8187;SDS011;4135;49.184;9.722;2022-09-01T11:28:03;7.53;;;4.75;;
8187;SDS011;4135;49.184;9.722;2022-09-01T11:33:32;8.43;;;5.05;;
8187;SDS011;4135;49.184;9.722;2022-09-01T11:36:19;7.28;;;4.50;;
8187;SDS011;4135;49.184;9.722;2022-09-01T11:41:51;6.65;;;4.78;;
8187;SDS011;4135;49.184;9.722;2022-09-01T11:44:41;7.93;;;3.83;;
8187;SDS011;4135;49.184;9.722;2022-09-01T11:48:00;9.05;;;5.68;;
8187;SDS011;4135;49.184;9.722;2022-09-01T11:50:29;6.35;;;4.93;;
8187;SDS011;4135;49.184;9.722;2022-09-01T11:55:39;5.07;;;4.30;;
8187;SDS011;4135;49.184;9.722;2022-09-01T12:03:44;5.38;;;4.53;;
8187;SDS011;4135;49.184;9.722;2022-09-01T12:06:20;6.88;;;4.53;;
8187;SDS011;4135;49.184;9.722;2022-09-01T12:08:55;6.38;;;4.50;;
8187;SDS011;4135;49.184;9.722;2022-09-01T12:11:31;5.20;;;4.25;;
8187;SDS011;4135;49.184;9.722;2022-09-01T12:14:05;4.35;;;3.75;;
8187;SDS011;4135;49.184;9.722;2022-09-01T12:16:39;5.55;;;4.00;;
8187;SDS011;4135;49.184;9.722;2022-09-01T12:19:21;7.72;;;3.97;;
8187;SDS011;4135;49.184;9.722;2022-09-01T12:21:55;5.05;;;3.83;;
8187;SDS011;4135;49.184;9.722;2022-09-01T12:24:30;5.82;;;3.83;;
8187;SDS011;4135;49.184;9.722;2022-09-01T12:27:02;5.65;;;4.03;;
8187;SDS011;4135;49.184;9.722;2022-09-01T12:29:32;6.07;;;4.35;;
8187;SDS011;4135;49.184;9.722;2022-09-01T12:32:02;4.43;;;3.50;;
8187;SDS011;4135;49.184;9.722;2022-09-01T12:37:06;6.10;;;3.90;;
8187;SDS011;4135;49.184;9.722;2022-09-01T12:39:46;4.72;;;3.63;;
8187;SDS011;4135;49.184;9.722;2022-09-01T12:44:54;4.63;;;3.50;;
8187;SDS011;4135;49.184;9.722;2022-09-01T12:50:04;5.68;;;3.63;;
8187;SDS011;4135;49.184;9.722;2022-09-01T12:52:44;5.88;;;3.47;;
8187;SDS011;4135;49.184;9.722;2022-09-01T12:55:18;5.22;;;3.30;;
8187;SDS011;4135;49.184;9.722;2022-09-01T12:57:53;4.18;;;3.28;;
8187;SDS011;4135;49.184;9.722;2022-09-01T13:00:29;4.18;;;3.58;;
8187;SDS011;4135;49.184;9.722;2022-09-01T13:05:46;3.15;;;2.88;;
8187;SDS011;4135;49.184;9.722;2022-09-01T13:08:20;6.60;;;3.83;;
8187;SDS011;4135;49.184;9.722;2022-09-01T13:10:55;4.18;;;3.33;;
8187;SDS011;4135;49.184;9.722;2022-09-01T13:13:29;5.72;;;3.08;;
8187;SDS011;4135;49.184;9.722;2022-09-01T13:15:59;4.53;;;3.38;;
8187;SDS011;4135;49.184;9.722;2022-09-01T13:18:32;4.97;;;3.53;;
8187;SDS011;4135;49.184;9.722;2022-09-01T13:21:01;3.95;;;3.55;;
8187;SDS011;4135;49.184;9.722;2022-09-01T13:23:31;4.45;;;3.60;;
8187;SDS011;4135;49.184;9.722;2022-09-01T13:26:01;6.03;;;3.50;;
8187;SDS011;4135;49.184;9.722;2022-09-01T13:28:30;4.28;;;3.63;;
8187;SDS011;4135;49.184;9.722;2022-09-01T13:31:01;6.75;;;4.50;;
8187;SDS011;4135;49.184;9.722;2022-09-01T13:33:35;6.63;;;3.75;;
8187;SDS011;4135;49.184;9.722;2022-09-01T13:36:04;4.13;;;3.53;;
8187;SDS011;4135;49.184;9.722;2022-09-01T13:38:34;6.57;;;4.18;;
8187;SDS011;4135;49.184;9.722;2022-09-01T13:41:03;7.88;;;4.10;;
8187;SDS011;4135;49.184;9.722;2022-09-01T13:43:33;4.07;;;3.50;;
8187;SDS011;4135;49.184;9.722;2022-09-01T13:46:03;4.82;;;3.45;;
8187;SDS011;4135;49.184;9.722;2022-09-01T13:48:32;5.05;;;3.55;;
8187;SDS011;4135;49.184;9.722;2022-09-01T13:51:03;5.82;;;3.83;;
8187;SDS011;4135;49.184;9.722;2022-09-01T13:53:32;5.32;;;4.38;;
8187;SDS011;4135;49.184;9.722;2022-09-01T13:56:02;3.97;;;3.50;;
8187;SDS011;4135;49.184;9.722;2022-09-01T13:58:32;5.30;;;3.78;;
8187;SDS011;4135;49.184;9.722;2022-09-01T14:01:01;4.97;;;3.58;;
8187;SDS011;4135;49.184;9.722;2022-09-01T14:03:32;4.40;;;2.92;;
8187;SDS011;4135;49.184;9.722;2022-09-01T14:06:02;5.72;;;4.18;;
8187;SDS011;4135;49.184;9.722;2022-09-01T14:08:33;3.67;;;3.35;;
8187;SDS011;4135;49.184;9.722;2022-09-01T14:11:03;4.22;;;3.20;;
8187;SDS011;4135;49.184;9.722;2022-09-01T14:13:32;4.00;;;3.13;;
8187;SDS011;4135;49.184;9.722;2022-09-01T14:16:08;4.72;;;3.47;;
8187;SDS011;4135;49.184;9.722;2022-09-01T14:18:39;5.30;;;3.35;;
8187;SDS011;4135;49.184;9.722;2022-09-01T14:21:13;4.53;;;3.08;;
8187;SDS011;4135;49.184;9.722;2022-09-01T14:23:44;10.38;;;2.85;;
8187;SDS011;4135;49.184;9.722;2022-09-01T14:26:14;5.65;;;3.53;;
8187;SDS011;4135;49.184;9.722;2022-09-01T14:28:45;4.43;;;3.28;;
8187;SDS011;4135;49.184;9.722;2022-09-01T14:31:16;4.35;;;2.97;;
8187;SDS011;4135;49.184;9.722;2022-09-01T14:33:47;6.68;;;3.70;;
8187;SDS011;4135;49.184;9.722;2022-09-01T14:36:18;4.20;;;3.30;;
8187;SDS011;4135;49.184;9.722;2022-09-01T14:38:53;6.68;;;3.78;;
8187;SDS011;4135;49.184;9.722;2022-09-01T14:41:23;9.32;;;3.45;;
8187;SDS011;4135;49.184;9.722;2022-09-01T14:43:53;5.80;;;3.47;;
8187;SDS011;4135;49.184;9.722;2022-09-01T14:46:27;4.68;;;3.42;;
8187;SDS011;4135;49.184;9.722;2022-09-01T14:48:59;5.45;;;3.33;;
8187;SDS011;4135;49.184;9.722;2022-09-01T14:51:30;5.55;;;3.17;;
8187;SDS011;4135;49.184;9.722;2022-09-01T14:54:00;5.43;;;3.13;;
8187;SDS011;4135;49.184;9.722;2022-09-01T14:56:29;6.88;;;3.25;;
8187;SDS011;4135;49.184;9.722;2022-09-01T14:58:59;4.28;;;2.97;;
8187;SDS011;4135;49.184;9.722;2022-09-01T15:01:30;5.32;;;3.22;;
8187;SDS011;4135;49.184;9.722;2022-09-01T15:03:59;5.10;;;3.13;;
8187;SDS011;4135;49.184;9.722;2022-09-01T15:06:29;2.80;;;2.65;;
8187;SDS011;4135;49.184;9.722;2022-09-01T15:08:59;5.38;;;2.58;;
8187;SDS011;4135;49.184;9.722;2022-09-01T15:11:30;3.10;;;2.65;;
8187;SDS011;4135;49.184;9.722;2022-09-01T15:13:59;2.78;;;2.58;;
8187;SDS011;4135;49.184;9.722;2022-09-01T15:16:29;3.55;;;2.40;;
8187;SDS011;4135;49.184;9.722;2022-09-01T15:18:58;5.40;;;2.53;;
8187;SDS011;4135;49.184;9.722;2022-09-01T15:21:29;3.30;;;2.45;;
8187;SDS011;4135;49.184;9.722;2022-09-01T15:24:01;4.85;;;2.53;;
8187;SDS011;4135;49.184;9.722;2022-09-01T15:26:31;3.15;;;2.70;;
8187;SDS011;4135;49.184;9.722;2022-09-01T15:29:02;3.78;;;2.47;;
8187;SDS011;4135;49.184;9.722;2022-09-01T15:31:33;4.40;;;2.03;;
8187;SDS011;4135;49.184;9.722;2022-09-01T15:34:03;6.10;;;2.00;;
8187;SDS011;4135;49.184;9.722;2022-09-01T15:36:34;8.63;;;3.47;;
8187;SDS011;4135;49.184;9.722;2022-09-01T15:39:08;3.40;;;2.45;;
8187;SDS011;4135;49.184;9.722;2022-09-01T15:41:38;3.17;;;2.78;;
8187;SDS011;4135;49.184;9.722;2022-09-01T15:44:08;4.30;;;2.97;;
8187;SDS011;4135;49.184;9.722;2022-09-01T15:46:37;3.53;;;2.78;;
8187;SDS011;4135;49.184;9.722;2022-09-01T15:49:08;3.50;;;3.00;;
8187;SDS011;4135;49.184;9.722;2022-09-01T15:51:39;5.38;;;2.55;;
8187;SDS011;4135;49.184;9.722;2022-09-01T15:54:14;5.47;;;2.40;;
8187;SDS011;4135;49.184;9.722;2022-09-01T15:56:48;3.08;;;2.90;;
8187;SDS011;4135;49.184;9.722;2022-09-01T15:59:17;3.70;;;2.80;;
8187;SDS011;4135;49.184;9.722;2022-09-01T16:01:47;6.13;;;2.72;;
8187;SDS011;4135;49.184;9.722;2022-09-01T16:04:16;12.18;;;3.28;;
8187;SDS011;4135;49.184;9.722;2022-09-01T16:06:46;4.82;;;3.35;;
8187;SDS011;4135;49.184;9.722;2022-09-01T16:09:17;5.50;;;3.72;;
8187;SDS011;4135;49.184;9.722;2022-09-01T16:11:49;4.88;;;3.65;;
8187;SDS011;4135;49.184;9.722;2022-09-01T16:14:18;5.55;;;3.20;;
8187;SDS011;4135;49.184;9.722;2022-09-01T16:20:02;5.70;;;3.15;;
8187;SDS011;4135;49.184;9.722;2022-09-01T16:25:28;4.78;;;2.85;;
8187;SDS011;4135;49.184;9.722;2022-09-01T16:28:00;5.40;;;3.38;;
8187;SDS011;4135;49.184;9.722;2022-09-01T16:30:43;2.88;;;2.45;;
8187;SDS011;4135;49.184;9.722;2022-09-01T16:33:15;3.25;;;3.03;;
8187;SDS011;4135;49.184;9.722;2022-09-01T16:35:55;3.65;;;3.00;;
8187;SDS011;4135;49.184;9.722;2022-09-01T16:41:11;5.45;;;3.70;;
8187;SDS011;4135;49.184;9.722;2022-09-01T16:44:09;5.03;;;3.35;;
8187;SDS011;4135;49.184;9.722;2022-09-01T16:46:55;4.38;;;3.10;;
8187;SDS011;4135;49.184;9.722;2022-09-01T16:49:57;4.75;;;3.00;;
8187;SDS011;4135;49.184;9.722;2022-09-01T16:56:08;3.85;;;3.15;;
8187;SDS011;4135;49.184;9.722;2022-09-01T17:01:41;5.03;;;3.22;;